sensor_id;sensor_type;location;lat;lon;timestamp;pressure;altitude;pressure_sealevel;temperature;humidity
75895;BME280;64573;50.328;15.014;2023-02-10T00:01:16;100595.78;;;-5.03;84.03
75895;BME280;64573;50.328;15.014;2023-02-10T00:03:42;100594.69;;;-4.96;84.59
75895;BME280;64573;50.328;15.014;2023-02-10T00:06:09;100608.41;;;-4.88;84.01
75895;BME280;64573;50.328;15.014;2023-02-10T00:08:35;100611.56;;;-5.06;84.87
75895;BME280;64573;50.328;15.014;2023-02-10T00:11:03;100600.66;;;-5.22;84.99
75895;BME280;64573;50.328;15.014;2023-02-10T00:13:29;100610.63;;;-5.35;86.64
75895;BME280;64573;50.328;15.014;2023-02-10T00:15:57;100599.16;;;-5.31;86.05
75895;BME280;64573;50.328;15.014;2023-02-10T00:18:22;100592.03;;;-5.58;86.14
75895;BME280;64573;50.328;15.014;2023-02-10T00:20:47;100593.44;;;-5.77;85.85
75895;BME280;64573;50.328;15.014;2023-02-10T00:23:13;100598.91;;;-5.88;87.09
75895;BME280;64573;50.328;15.014;2023-02-10T00:25:38;100584.28;;;-5.92;86.88
75895;BME280;64573;50.328;15.014;2023-02-10T00:28:04;100588.03;;;-6.04;87.63
75895;BME280;64573;50.328;15.014;2023-02-10T00:30:30;100583.13;;;-6.18;87.14
75895;BME280;64573;50.328;15.014;2023-02-10T00:32:56;100582.44;;;-6.24;88.00
75895;BME280;64573;50.328;15.014;2023-02-10T00:35:22;100588.69;;;-6.30;87.69
75895;BME280;64573;50.328;15.014;2023-02-10T00:37:47;100584.94;;;-6.20;88.82
75895;BME280;64573;50.328;15.014;2023-02-10T00:40:13;100585.03;;;-6.23;87.57
75895;BME280;64573;50.328;15.014;2023-02-10T00:42:38;100579.84;;;-6.26;87.42
75895;BME280;64573;50.328;15.014;2023-02-10T00:45:04;100579.09;;;-6.31;87.84
75895;BME280;64573;50.328;15.014;2023-02-10T00:47:30;100580.84;;;-6.31;88.01
75895;BME280;64573;50.328;15.014;2023-02-10T00:49:55;100581.66;;;-6.28;88.63
75895;BME280;64573;50.328;15.014;2023-02-10T00:52:22;100584.38;;;-6.32;88.25
75895;BME280;64573;50.328;15.014;2023-02-10T00:54:48;100586.22;;;-6.38;87.75
75895;BME280;64573;50.328;15.014;2023-02-10T00:57:13;100580.13;;;-6.38;88.38
75895;BME280;64573;50.328;15.014;2023-02-10T00:59:39;100582.97;;;-6.47;88.84
75895;BME280;64573;50.328;15.014;2023-02-10T01:02:04;100573.91;;;-6.32;88.44
75895;BME280;64573;50.328;15.014;2023-02-10T01:04:30;100573.09;;;-6.34;88.24
75895;BME280;64573;50.328;15.014;2023-02-10T01:06:55;100573.69;;;-6.22;88.69
75895;BME280;64573;50.328;15.014;2023-02-10T01:09:21;100575.56;;;-6.28;88.75
75895;BME280;64573;50.328;15.014;2023-02-10T01:11:46;100574.38;;;-6.51;88.42
75895;BME280;64573;50.328;15.014;2023-02-10T01:14:12;100551.78;;;-6.53;87.60
75895;BME280;64573;50.328;15.014;2023-02-10T01:16:37;100532.00;;;-6.62;88.72
75895;BME280;64573;50.328;15.014;2023-02-10T01:19:03;100542.69;;;-6.74;89.01
75895;BME280;64573;50.328;15.014;2023-02-10T01:21:29;100535.63;;;-6.69;89.47
75895;BME280;64573;50.328;15.014;2023-02-10T01:23:55;100546.16;;;-6.72;89.07
75895;BME280;64573;50.328;15.014;2023-02-10T01:26:21;100551.16;;;-6.63;89.87
75895;BME280;64573;50.328;15.014;2023-02-10T01:28:47;100545.78;;;-6.57;89.18
75895;BME280;64573;50.328;15.014;2023-02-10T01:31:15;100560.69;;;-6.62;89.15
75895;BME280;64573;50.328;15.014;2023-02-10T01:33:41;100567.78;;;-6.69;88.75
75895;BME280;64573;50.328;15.014;2023-02-10T01:36:15;100569.41;;;-6.63;88.54
75895;BME280;64573;50.328;15.014;2023-02-10T01:38:42;100560.34;;;-6.85;89.41
75895;BME280;64573;50.328;15.014;2023-02-10T01:41:08;100574.41;;;-6.92;88.56
75895;BME280;64573;50.328;15.014;2023-02-10T01:43:54;100567.78;;;-7.07;89.14
75895;BME280;64573;50.328;15.014;2023-02-10T01:46:20;100564.06;;;-6.97;89.90
75895;BME280;64573;50.328;15.014;2023-02-10T01:48:45;100570.78;;;-6.85;90.21
75895;BME280;64573;50.328;15.014;2023-02-10T01:51:11;100568.66;;;-6.68;89.36
75895;BME280;64573;50.328;15.014;2023-02-10T01:53:38;100574.00;;;-6.73;90.17
75895;BME280;64573;50.328;15.014;2023-02-10T01:56:04;100571.84;;;-6.55;89.86
75895;BME280;64573;50.328;15.014;2023-02-10T01:58:32;100584.63;;;-6.45;89.16
75895;BME280;64573;50.328;15.014;2023-02-10T02:00:58;100585.84;;;-6.59;88.66
75895;BME280;64573;50.328;15.014;2023-02-10T02:03:24;100594.13;;;-6.81;88.64
75895;BME280;64573;50.328;15.014;2023-02-10T02:05:51;100602.88;;;-6.82;89.20
75895;BME280;64573;50.328;15.014;2023-02-10T02:08:22;100603.25;;;-7.00;89.51
75895;BME280;64573;50.328;15.014;2023-02-10T02:19:00;100569.94;;;-7.75;90.49
75895;BME280;64573;50.328;15.014;2023-02-10T02:21:51;100578.97;;;-7.93;90.50
75895;BME280;64573;50.328;15.014;2023-02-10T02:27:12;100588.03;;;-8.17;91.03
75895;BME280;64573;50.328;15.014;2023-02-10T02:32:32;100598.19;;;-8.02;91.69
75895;BME280;64573;50.328;15.014;2023-02-10T02:35:06;100595.88;;;-8.20;91.66
75895;BME280;64573;50.328;15.014;2023-02-10T02:37:36;100599.34;;;-8.20;91.68
75895;BME280;64573;50.328;15.014;2023-02-10T02:40:04;100604.28;;;-8.01;91.24
75895;BME280;64573;50.328;15.014;2023-02-10T02:42:31;100605.13;;;-8.01;91.79
75895;BME280;64573;50.328;15.014;2023-02-10T02:45:21;100606.34;;;-8.23;91.99
75895;BME280;64573;50.328;15.014;2023-02-10T02:50:49;100596.22;;;-8.40;92.71
75895;BME280;64573;50.328;15.014;2023-02-10T02:56:34;100594.47;;;-8.38;92.56
75895;BME280;64573;50.328;15.014;2023-02-10T03:01:57;100589.56;;;-8.58;92.40
75895;BME280;64573;50.328;15.014;2023-02-10T03:04:28;100588.63;;;-8.55;92.80
75895;BME280;64573;50.328;15.014;2023-02-10T03:06:54;100593.06;;;-8.60;93.13
75895;BME280;64573;50.328;15.014;2023-02-10T03:09:20;100592.31;;;-8.69;92.72
75895;BME280;64573;50.328;15.014;2023-02-10T03:11:45;100593.22;;;-8.73;93.32
75895;BME280;64573;50.328;15.014;2023-02-10T03:14:11;100597.53;;;-8.70;92.62
75895;BME280;64573;50.328;15.014;2023-02-10T03:16:36;100592.47;;;-8.81;93.30
75895;BME280;64573;50.328;15.014;2023-02-10T03:19:02;100598.59;;;-8.83;93.35
75895;BME280;64573;50.328;15.014;2023-02-10T03:21:28;100607.31;;;-8.89;92.83
75895;BME280;64573;50.328;15.014;2023-02-10T03:23:53;100596.56;;;-8.62;93.13
75895;BME280;64573;50.328;15.014;2023-02-10T03:26:18;100601.81;;;-8.66;93.08
75895;BME280;64573;50.328;15.014;2023-02-10T03:28:44;100599.03;;;-8.52;93.10
75895;BME280;64573;50.328;15.014;2023-02-10T03:31:09;100605.09;;;-8.52;92.75
75895;BME280;64573;50.328;15.014;2023-02-10T03:33:34;100601.69;;;-8.57;91.98
75895;BME280;64573;50.328;15.014;2023-02-10T03:36:00;100612.91;;;-8.55;92.47
75895;BME280;64573;50.328;15.014;2023-02-10T03:38:27;100614.75;;;-8.63;92.13
75895;BME280;64573;50.328;15.014;2023-02-10T03:40:53;100618.25;;;-8.64;92.09
75895;BME280;64573;50.328;15.014;2023-02-10T03:43:20;100619.84;;;-8.52;92.60
75895;BME280;64573;50.328;15.014;2023-02-10T03:45:45;100626.97;;;-8.70;91.62
75895;BME280;64573;50.328;15.014;2023-02-10T03:48:11;100627.94;;;-8.74;91.83
75895;BME280;64573;50.328;15.014;2023-02-10T03:50:37;100636.72;;;-8.84;91.87
75895;BME280;64573;50.328;15.014;2023-02-10T03:53:02;100634.16;;;-8.87;91.64
75895;BME280;64573;50.328;15.014;2023-02-10T03:55:28;100632.19;;;-8.70;91.46
75895;BME280;64573;50.328;15.014;2023-02-10T03:57:54;100641.75;;;-8.69;91.21
75895;BME280;64573;50.328;15.014;2023-02-10T04:00:19;100644.44;;;-8.78;91.06
75895;BME280;64573;50.328;15.014;2023-02-10T04:02:45;100645.47;;;-8.93;90.98
75895;BME280;64573;50.328;15.014;2023-02-10T04:05:10;100640.25;;;-8.91;91.12
75895;BME280;64573;50.328;15.014;2023-02-10T04:07:36;100643.94;;;-9.07;91.73
75895;BME280;64573;50.328;15.014;2023-02-10T04:10:02;100637.88;;;-9.08;91.90
75895;BME280;64573;50.328;15.014;2023-02-10T04:12:27;100638.72;;;-9.06;91.95
75895;BME280;64573;50.328;15.014;2023-02-10T04:14:53;100635.28;;;-9.09;91.33
75895;BME280;64573;50.328;15.014;2023-02-10T04:17:18;100629.34;;;-9.18;91.54
75895;BME280;64573;50.328;15.014;2023-02-10T04:19:43;100631.06;;;-9.17;91.22
75895;BME280;64573;50.328;15.014;2023-02-10T04:22:09;100636.16;;;-9.09;91.65
75895;BME280;64573;50.328;15.014;2023-02-10T04:24:35;100636.09;;;-9.06;91.33
75895;BME280;64573;50.328;15.014;2023-02-10T04:27:00;100633.66;;;-9.17;91.17
75895;BME280;64573;50.328;15.014;2023-02-10T04:29:26;100630.31;;;-9.26;90.99
75895;BME280;64573;50.328;15.014;2023-02-10T04:31:51;100630.38;;;-9.32;91.37
75895;BME280;64573;50.328;15.014;2023-02-10T04:34:16;100639.88;;;-9.34;90.55
75895;BME280;64573;50.328;15.014;2023-02-10T04:36:42;100642.63;;;-9.47;91.19
75895;BME280;64573;50.328;15.014;2023-02-10T04:39:07;100640.88;;;-9.45;91.07
75895;BME280;64573;50.328;15.014;2023-02-10T04:41:32;100641.63;;;-9.32;91.54
75895;BME280;64573;50.328;15.014;2023-02-10T04:43:58;100648.59;;;-9.38;91.45
75895;BME280;64573;50.328;15.014;2023-02-10T04:46:23;100637.47;;;-9.51;91.69
75895;BME280;64573;50.328;15.014;2023-02-10T04:48:49;100646.16;;;-9.52;91.52
75895;BME280;64573;50.328;15.014;2023-02-10T04:51:14;100654.84;;;-9.58;91.58
75895;BME280;64573;50.328;15.014;2023-02-10T04:53:40;100655.00;;;-9.70;90.57
75895;BME280;64573;50.328;15.014;2023-02-10T04:56:08;100663.69;;;-9.77;91.22
75895;BME280;64573;50.328;15.014;2023-02-10T04:58:34;100677.53;;;-9.75;90.45
75895;BME280;64573;50.328;15.014;2023-02-10T05:00:59;100674.00;;;-9.71;90.74
75895;BME280;64573;50.328;15.014;2023-02-10T05:03:25;100672.03;;;-9.43;91.40
75895;BME280;64573;50.328;15.014;2023-02-10T05:05:50;100667.69;;;-9.42;91.20
75895;BME280;64573;50.328;15.014;2023-02-10T05:08:19;100675.59;;;-9.53;91.89
75895;BME280;64573;50.328;15.014;2023-02-10T05:10:49;100667.03;;;-9.61;91.69
75895;BME280;64573;50.328;15.014;2023-02-10T05:13:14;100664.44;;;-9.64;90.92
75895;BME280;64573;50.328;15.014;2023-02-10T05:15:39;100664.50;;;-9.72;90.64
75895;BME280;64573;50.328;15.014;2023-02-10T05:18:05;100683.63;;;-9.81;90.63
75895;BME280;64573;50.328;15.014;2023-02-10T05:20:30;100674.88;;;-9.72;91.25
75895;BME280;64573;50.328;15.014;2023-02-10T05:22:56;100672.28;;;-9.72;91.11
75895;BME280;64573;50.328;15.014;2023-02-10T05:25:21;100684.41;;;-9.73;90.78
75895;BME280;64573;50.328;15.014;2023-02-10T05:27:46;100688.75;;;-9.70;91.14
75895;BME280;64573;50.328;15.014;2023-02-10T05:30:12;100700.72;;;-9.55;91.33
75895;BME280;64573;50.328;15.014;2023-02-10T05:32:39;100700.78;;;-9.63;91.38
75895;BME280;64573;50.328;15.014;2023-02-10T05:35:09;100708.63;;;-9.72;91.49
75895;BME280;64573;50.328;15.014;2023-02-10T05:37:34;100708.66;;;-9.74;91.06
75895;BME280;64573;50.328;15.014;2023-02-10T05:40:00;100707.75;;;-9.71;91.12
75895;BME280;64573;50.328;15.014;2023-02-10T05:42:25;100697.31;;;-9.60;91.36
75895;BME280;64573;50.328;15.014;2023-02-10T05:44:51;100704.19;;;-9.55;91.05
75895;BME280;64573;50.328;15.014;2023-02-10T05:47:17;100714.56;;;-9.55;91.63
75895;BME280;64573;50.328;15.014;2023-02-10T05:49:42;100713.78;;;-9.66;91.22
75895;BME280;64573;50.328;15.014;2023-02-10T05:52:07;100714.63;;;-9.64;90.88
75895;BME280;64573;50.328;15.014;2023-02-10T05:54:33;100711.13;;;-9.58;91.97
75895;BME280;64573;50.328;15.014;2023-02-10T05:56:58;100710.19;;;-9.51;91.38
75895;BME280;64573;50.328;15.014;2023-02-10T05:59:23;100715.25;;;-9.36;91.68
75895;BME280;64573;50.328;15.014;2023-02-10T06:01:49;100723.09;;;-9.39;92.00
75895;BME280;64573;50.328;15.014;2023-02-10T06:04:14;100722.28;;;-9.46;91.88
75895;BME280;64573;50.328;15.014;2023-02-10T06:06:40;100729.03;;;-9.26;91.40
75895;BME280;64573;50.328;15.014;2023-02-10T06:09:05;100737.56;;;-9.15;91.57
75895;BME280;64573;50.328;15.014;2023-02-10T06:11:31;100735.00;;;-9.17;91.63
75895;BME280;64573;50.328;15.014;2023-02-10T06:13:56;100734.16;;;-9.22;91.05
75895;BME280;64573;50.328;15.014;2023-02-10T06:16:22;100741.94;;;-9.20;90.95
75895;BME280;64573;50.328;15.014;2023-02-10T06:18:47;100748.81;;;-9.14;91.49
75895;BME280;64573;50.328;15.014;2023-02-10T06:21:14;100759.28;;;-9.21;91.13
75895;BME280;64573;50.328;15.014;2023-02-10T06:23:40;100756.59;;;-9.10;91.40
75895;BME280;64573;50.328;15.014;2023-02-10T06:26:05;100757.22;;;-8.88;91.05
75895;BME280;64573;50.328;15.014;2023-02-10T06:28:30;100765.13;;;-8.97;91.47
75895;BME280;64573;50.328;15.014;2023-02-10T06:30:57;100767.81;;;-9.05;91.83
75895;BME280;64573;50.328;15.014;2023-02-10T06:33:22;100764.19;;;-8.90;91.27
75895;BME280;64573;50.328;15.014;2023-02-10T06:35:48;100765.78;;;-8.75;91.31
75895;BME280;64573;50.328;15.014;2023-02-10T06:38:14;100767.28;;;-8.54;92.24
75895;BME280;64573;50.328;15.014;2023-02-10T06:40:39;100773.03;;;-8.34;91.84
75895;BME280;64573;50.328;15.014;2023-02-10T06:43:05;100769.50;;;-8.25;91.62
75895;BME280;64573;50.328;15.014;2023-02-10T06:45:30;100772.97;;;-8.28;92.60
75895;BME280;64573;50.328;15.014;2023-02-10T06:47:56;100769.44;;;-8.22;91.95
75895;BME280;64573;50.328;15.014;2023-02-10T06:50:21;100760.63;;;-8.11;91.09
75895;BME280;64573;50.328;15.014;2023-02-10T06:52:47;100766.28;;;-7.84;91.18
75895;BME280;64573;50.328;15.014;2023-02-10T06:55:13;100772.69;;;-7.48;91.02
75895;BME280;64573;50.328;15.014;2023-02-10T06:57:39;100768.63;;;-7.12;91.01
75895;BME280;64573;50.328;15.014;2023-02-10T07:00:10;100769.19;;;-6.96;90.81
75895;BME280;64573;50.328;15.014;2023-02-10T07:02:36;100773.31;;;-6.83;90.71
75895;BME280;64573;50.328;15.014;2023-02-10T07:05:03;100771.22;;;-6.64;90.48
75895;BME280;64573;50.328;15.014;2023-02-10T07:07:30;100769.88;;;-6.40;90.51
75895;BME280;64573;50.328;15.014;2023-02-10T07:09:56;100770.63;;;-6.33;90.99
75895;BME280;64573;50.328;15.014;2023-02-10T07:12:21;100776.78;;;-6.38;90.92
75895;BME280;64573;50.328;15.014;2023-02-10T07:14:47;100776.78;;;-6.38;89.97
75895;BME280;64573;50.328;15.014;2023-02-10T07:17:12;100783.59;;;-6.29;90.64
75895;BME280;64573;50.328;15.014;2023-02-10T07:19:38;100787.88;;;-6.26;90.01
75895;BME280;64573;50.328;15.014;2023-02-10T07:22:03;100803.34;;;-6.17;90.58
75895;BME280;64573;50.328;15.014;2023-02-10T07:24:32;100802.16;;;-6.02;91.32
75895;BME280;64573;50.328;15.014;2023-02-10T07:26:58;100798.28;;;-5.85;90.87
75895;BME280;64573;50.328;15.014;2023-02-10T07:29:23;100800.56;;;-5.69;90.92
75895;BME280;64573;50.328;15.014;2023-02-10T07:31:48;100802.84;;;-5.56;91.37
75895;BME280;64573;50.328;15.014;2023-02-10T07:34:14;100813.09;;;-5.46;91.28
75895;BME280;64573;50.328;15.014;2023-02-10T07:36:39;100811.06;;;-5.34;91.47
75895;BME280;64573;50.328;15.014;2023-02-10T07:39:05;100812.63;;;-5.27;91.21
75895;BME280;64573;50.328;15.014;2023-02-10T07:41:30;100811.31;;;-5.09;91.74
75895;BME280;64573;50.328;15.014;2023-02-10T07:43:55;100825.91;;;-5.00;91.55
75895;BME280;64573;50.328;15.014;2023-02-10T07:46:21;100816.91;;;-4.88;91.64
75895;BME280;64573;50.328;15.014;2023-02-10T07:48:46;100820.97;;;-4.77;91.05
75895;BME280;64573;50.328;15.014;2023-02-10T07:51:11;100827.63;;;-4.65;91.58
75895;BME280;64573;50.328;15.014;2023-02-10T07:53:37;100828.19;;;-4.52;91.47
75895;BME280;64573;50.328;15.014;2023-02-10T07:56:03;100833.25;;;-4.46;90.65
75895;BME280;64573;50.328;15.014;2023-02-10T07:58:29;100834.75;;;-4.37;91.56
75895;BME280;64573;50.328;15.014;2023-02-10T08:00:55;100828.56;;;-4.35;91.00
75895;BME280;64573;50.328;15.014;2023-02-10T08:03:20;100824.00;;;-4.27;91.32
75895;BME280;64573;50.328;15.014;2023-02-10T08:05:46;100833.19;;;-4.12;91.37
75895;BME280;64573;50.328;15.014;2023-02-10T08:08:14;100835.63;;;-4.06;90.99
75895;BME280;64573;50.328;15.014;2023-02-10T08:10:40;100831.50;;;-4.14;91.03
75895;BME280;64573;50.328;15.014;2023-02-10T08:13:06;100825.56;;;-4.20;90.93
75895;BME280;64573;50.328;15.014;2023-02-10T08:15:31;100832.34;;;-4.14;90.45
75895;BME280;64573;50.328;15.014;2023-02-10T08:18:00;100833.22;;;-4.13;91.23
75895;BME280;64573;50.328;15.014;2023-02-10T08:20:26;100828.81;;;-4.13;91.21
75895;BME280;64573;50.328;15.014;2023-02-10T08:22:55;100834.69;;;-4.03;90.94
75895;BME280;64573;50.328;15.014;2023-02-10T08:25:20;100832.56;;;-4.22;89.14
75895;BME280;64573;50.328;15.014;2023-02-10T08:27:46;100831.56;;;-4.16;89.33
75895;BME280;64573;50.328;15.014;2023-02-10T08:30:11;100827.16;;;-4.16;90.10
75895;BME280;64573;50.328;15.014;2023-02-10T08:32:37;100826.81;;;-4.03;89.99
75895;BME280;64573;50.328;15.014;2023-02-10T08:35:03;100822.38;;;-4.01;89.70
75895;BME280;64573;50.328;15.014;2023-02-10T08:37:29;100834.38;;;-3.93;90.09
75895;BME280;64573;50.328;15.014;2023-02-10T08:39:54;100838.69;;;-3.90;89.73
75895;BME280;64573;50.328;15.014;2023-02-10T08:42:19;100839.53;;;-3.90;89.35
75895;BME280;64573;50.328;15.014;2023-02-10T08:44:45;100847.13;;;-3.80;89.24
75895;BME280;64573;50.328;15.014;2023-02-10T08:47:10;100842.63;;;-3.77;88.80
75895;BME280;64573;50.328;15.014;2023-02-10T08:49:39;100845.97;;;-3.72;88.42
75895;BME280;64573;50.328;15.014;2023-02-10T08:52:04;100856.19;;;-3.63;88.25
75895;BME280;64573;50.328;15.014;2023-02-10T08:54:30;100861.41;;;-3.61;88.39
75895;BME280;64573;50.328;15.014;2023-02-10T08:56:55;100867.47;;;-3.59;87.65
75895;BME280;64573;50.328;15.014;2023-02-10T08:59:20;100873.50;;;-3.57;86.72
75895;BME280;64573;50.328;15.014;2023-02-10T09:01:46;100884.88;;;-3.56;86.57
75895;BME280;64573;50.328;15.014;2023-02-10T09:04:12;100875.50;;;-3.36;86.87
75895;BME280;64573;50.328;15.014;2023-02-10T09:06:39;100883.97;;;-3.26;87.48
75895;BME280;64573;50.328;15.014;2023-02-10T09:09:15;100870.53;;;-3.17;86.48
75895;BME280;64573;50.328;15.014;2023-02-10T09:11:41;100853.94;;;-2.91;86.77
75895;BME280;64573;50.328;15.014;2023-02-10T09:14:07;100852.63;;;-2.78;86.22
75895;BME280;64573;50.328;15.014;2023-02-10T09:16:33;100846.72;;;-2.58;86.37
75895;BME280;64573;50.328;15.014;2023-02-10T09:18:59;100854.78;;;-2.37;85.35
75895;BME280;64573;50.328;15.014;2023-02-10T09:21:24;100850.31;;;-2.35;81.68
75895;BME280;64573;50.328;15.014;2023-02-10T09:23:50;100858.44;;;-2.18;81.12
75895;BME280;64573;50.328;15.014;2023-02-10T09:26:15;100858.84;;;-2.29;79.51
75895;BME280;64573;50.328;15.014;2023-02-10T09:28:41;100857.16;;;-2.06;80.15
75895;BME280;64573;50.328;15.014;2023-02-10T09:31:08;100858.25;;;-1.88;79.34
75895;BME280;64573;50.328;15.014;2023-02-10T09:33:34;100864.38;;;-1.64;77.95
75895;BME280;64573;50.328;15.014;2023-02-10T09:36:05;100857.28;;;-1.62;76.45
75895;BME280;64573;50.328;15.014;2023-02-10T09:38:31;100858.38;;;-1.68;75.40
75895;BME280;64573;50.328;15.014;2023-02-10T09:44:08;100860.50;;;-2.01;77.56
75895;BME280;64573;50.328;15.014;2023-02-10T09:52:21;100874.53;;;-2.52;78.78
75895;BME280;64573;50.328;15.014;2023-02-10T09:54:51;100865.28;;;-2.37;79.43
75895;BME280;64573;50.328;15.014;2023-02-10T09:57:35;100874.34;;;-2.21;78.82
75895;BME280;64573;50.328;15.014;2023-02-10T10:00:03;100875.72;;;-2.11;77.36
75895;BME280;64573;50.328;15.014;2023-02-10T10:02:45;100879.56;;;-1.96;77.99
75895;BME280;64573;50.328;15.014;2023-02-10T10:08:25;100893.13;;;-1.60;75.92
75895;BME280;64573;50.328;15.014;2023-02-10T10:10:52;100899.22;;;-1.58;75.18
75895;BME280;64573;50.328;15.014;2023-02-10T10:13:24;100882.00;;;-1.43;74.72
75895;BME280;64573;50.328;15.014;2023-02-10T10:19:10;100873.28;;;-1.23;72.89
75895;BME280;64573;50.328;15.014;2023-02-10T10:21:48;100866.59;;;-1.08;72.56
75895;BME280;64573;50.328;15.014;2023-02-10T10:24:33;100878.78;;;-1.06;72.88
75895;BME280;64573;50.328;15.014;2023-02-10T10:29:39;100884.28;;;-0.48;71.02
75895;BME280;64573;50.328;15.014;2023-02-10T10:34:54;100881.84;;;-0.32;68.93
75895;BME280;64573;50.328;15.014;2023-02-10T10:37:25;100882.78;;;-0.33;68.15
75895;BME280;64573;50.328;15.014;2023-02-10T10:42:27;100871.78;;;0.17;67.16
75895;BME280;64573;50.328;15.014;2023-02-10T10:44:59;100869.38;;;0.31;66.54
75895;BME280;64573;50.328;15.014;2023-02-10T10:47:38;100874.09;;;0.24;66.46
75895;BME280;64573;50.328;15.014;2023-02-10T10:50:05;100865.03;;;-0.30;66.92
75895;BME280;64573;50.328;15.014;2023-02-10T10:52:33;100868.66;;;-0.52;67.63
75895;BME280;64573;50.328;15.014;2023-02-10T10:55:07;100875.09;;;-0.60;66.46
75895;BME280;64573;50.328;15.014;2023-02-10T10:57:35;100872.25;;;-0.75;68.31
75895;BME280;64573;50.328;15.014;2023-02-10T11:00:26;100876.78;;;-0.57;69.65
75895;BME280;64573;50.328;15.014;2023-02-10T11:03:02;100871.69;;;-0.41;68.17
75895;BME280;64573;50.328;15.014;2023-02-10T11:05:35;100874.34;;;-0.21;68.37
75895;BME280;64573;50.328;15.014;2023-02-10T11:08:03;100867.41;;;-0.23;66.21
75895;BME280;64573;50.328;15.014;2023-02-10T11:10:51;100870.56;;;-0.15;66.16
75895;BME280;64573;50.328;15.014;2023-02-10T11:13:23;100856.78;;;-0.02;66.66
75895;BME280;64573;50.328;15.014;2023-02-10T11:16:06;100864.91;;;-0.06;65.78
75895;BME280;64573;50.328;15.014;2023-02-10T11:18:32;100868.78;;;-0.15;66.80
75895;BME280;64573;50.328;15.014;2023-02-10T11:21:01;100872.22;;;0.08;66.35
75895;BME280;64573;50.328;15.014;2023-02-10T11:23:28;100868.41;;;0.13;65.33
75895;BME280;64573;50.328;15.014;2023-02-10T11:28:26;100859.66;;;0.50;64.90
75895;BME280;64573;50.328;15.014;2023-02-10T11:33:27;100863.41;;;0.65;64.27
75895;BME280;64573;50.328;15.014;2023-02-10T11:38:25;100856.19;;;0.50;65.89
75895;BME280;64573;50.328;15.014;2023-02-10T11:46:00;100851.63;;;0.53;64.86
75895;BME280;64573;50.328;15.014;2023-02-10T11:48:28;100862.97;;;0.55;63.92
75895;BME280;64573;50.328;15.014;2023-02-10T11:53:31;100863.25;;;0.68;64.02
75895;BME280;64573;50.328;15.014;2023-02-10T13:21:09;100818.44;;;3.16;57.36
75895;BME280;64573;50.328;15.014;2023-02-10T13:44:27;100820.00;;;7.42;45.25
75895;BME280;64573;50.328;15.014;2023-02-10T14:05:00;100820.47;;;5.50;50.69
75895;BME280;64573;50.328;15.014;2023-02-10T14:22:50;100809.56;;;5.80;50.32
75895;BME280;64573;50.328;15.014;2023-02-10T14:25:32;100817.34;;;6.95;49.46
75895;BME280;64573;50.328;15.014;2023-02-10T14:30:45;100813.75;;;6.96;46.82
75895;BME280;64573;50.328;15.014;2023-02-10T14:33:37;100813.94;;;7.40;46.58
75895;BME280;64573;50.328;15.014;2023-02-10T14:43:49;100802.03;;;7.09;47.84
75895;BME280;64573;50.328;15.014;2023-02-10T14:48:57;100811.53;;;6.89;48.44
75895;BME280;64573;50.328;15.014;2023-02-10T14:51:26;100803.50;;;7.13;48.94
75895;BME280;64573;50.328;15.014;2023-02-10T15:01:38;100805.50;;;5.74;51.21
75895;BME280;64573;50.328;15.014;2023-02-10T15:24:50;100809.00;;;2.33;67.10
75895;BME280;64573;50.328;15.014;2023-02-10T15:27:18;100801.06;;;2.48;67.20
75895;BME280;64573;50.328;15.014;2023-02-10T15:37:29;100798.22;;;2.04;69.48
75895;BME280;64573;50.328;15.014;2023-02-10T15:50:21;100797.66;;;1.64;69.74
75895;BME280;64573;50.328;15.014;2023-02-10T15:52:47;100792.53;;;1.61;69.62
75895;BME280;64573;50.328;15.014;2023-02-10T15:55:21;100805.47;;;1.50;69.91
75895;BME280;64573;50.328;15.014;2023-02-10T16:38:55;100791.06;;;-0.86;80.27
75895;BME280;64573;50.328;15.014;2023-02-10T16:49:07;100790.25;;;-1.30;81.78
75895;BME280;64573;50.328;15.014;2023-02-10T16:56:36;100790.50;;;-1.36;82.03
75895;BME280;64573;50.328;15.014;2023-02-10T17:01:37;100775.06;;;-1.46;82.37
75895;BME280;64573;50.328;15.014;2023-02-10T17:06:44;100774.25;;;-1.70;82.90
75895;BME280;64573;50.328;15.014;2023-02-10T17:22:01;100784.97;;;-1.98;82.93
75895;BME280;64573;50.328;15.014;2023-02-10T17:24:27;100788.00;;;-2.08;83.01
75895;BME280;64573;50.328;15.014;2023-02-10T17:32:04;100784.50;;;-2.32;84.23
75895;BME280;64573;50.328;15.014;2023-02-10T17:34:32;100777.94;;;-2.44;84.19
75895;BME280;64573;50.328;15.014;2023-02-10T17:37:03;100785.31;;;-2.55;84.11
75895;BME280;64573;50.328;15.014;2023-02-10T17:42:05;100787.66;;;-2.46;85.08
75895;BME280;64573;50.328;15.014;2023-02-10T17:44:32;100790.22;;;-2.44;85.03
75895;BME280;64573;50.328;15.014;2023-02-10T17:54:40;100800.97;;;-2.27;84.66
75895;BME280;64573;50.328;15.014;2023-02-10T18:07:52;100790.91;;;-1.92;83.16
75895;BME280;64573;50.328;15.014;2023-02-10T18:12:52;100807.03;;;-1.78;82.54
75895;BME280;64573;50.328;15.014;2023-02-10T18:15:18;100791.19;;;-1.77;83.03
75895;BME280;64573;50.328;15.014;2023-02-10T18:17:43;100793.75;;;-1.75;83.12
75895;BME280;64573;50.328;15.014;2023-02-10T18:20:11;100801.13;;;-1.61;82.29
75895;BME280;64573;50.328;15.014;2023-02-10T18:22:36;100801.03;;;-1.60;82.66
75895;BME280;64573;50.328;15.014;2023-02-10T18:25:02;100800.72;;;-1.51;82.57
75895;BME280;64573;50.328;15.014;2023-02-10T18:27:27;100795.56;;;-1.54;82.30
75895;BME280;64573;50.328;15.014;2023-02-10T18:29:52;100800.09;;;-1.57;82.64
75895;BME280;64573;50.328;15.014;2023-02-10T18:32:18;100809.06;;;-1.63;82.59
75895;BME280;64573;50.328;15.014;2023-02-10T18:37:19;100792.78;;;-1.73;82.26
75895;BME280;64573;50.328;15.014;2023-02-10T18:39:44;100803.63;;;-1.80;82.68
75895;BME280;64573;50.328;15.014;2023-02-10T18:42:10;100799.50;;;-1.87;83.41
75895;BME280;64573;50.328;15.014;2023-02-10T18:44:35;100809.97;;;-1.86;83.13